createdAt,value
2023-03-22T08:34:29.046Z,94243.00
2023-03-22T08:34:40.381Z,94243.00
2023-03-22T08:34:51.974Z,94243.00
2023-03-22T08:35:03.296Z,94241.00
2023-03-22T08:35:14.864Z,94245.00
2023-03-22T08:35:26.218Z,94245.00
2023-03-22T08:35:38.309Z,94245.00
2023-03-22T08:35:50.075Z,94243.00
2023-03-22T08:36:01.479Z,94243.00
2023-03-22T08:36:13.040Z,94243.00
2023-03-22T08:36:24.371Z,94241.00
2023-03-22T08:36:35.973Z,94243.00
2023-03-22T08:36:47.316Z,94239.00
2023-03-22T08:36:58.910Z,94245.00
2023-03-22T08:37:10.231Z,94241.00
2023-03-22T08:37:21.834Z,94241.00
2023-03-22T08:37:33.176Z,94239.00
2023-03-22T08:37:44.723Z,94239.00
2023-03-22T08:37:56.052Z,94239.00
2023-03-22T08:38:07.629Z,94241.00
2023-03-22T08:38:18.979Z,94241.00
2023-03-22T08:38:30.571Z,94241.00
2023-03-22T08:38:41.905Z,94241.00
2023-03-22T08:38:53.521Z,94243.00
2023-03-22T08:39:04.854Z,94239.00
2023-03-22T08:39:16.452Z,94241.00
2023-03-22T08:39:27.782Z,94239.00
2023-03-22T08:39:39.339Z,94241.00
2023-03-22T08:39:50.668Z,94241.00
2023-03-22T08:40:02.365Z,94239.00
2023-03-22T08:40:13.741Z,94239.00
2023-03-22T08:40:25.392Z,94241.00
2023-03-22T08:40:36.709Z,94239.00
2023-03-22T08:40:48.286Z,94239.00
2023-03-22T08:40:59.608Z,94239.00
2023-03-22T08:41:11.180Z,94239.00
2023-03-22T08:41:22.494Z,94239.00
2023-03-22T08:41:34.074Z,94239.00
2023-03-22T08:41:45.395Z,94241.00
2023-03-22T08:41:56.969Z,94241.00
2023-03-22T08:42:08.287Z,94239.00
2023-03-22T08:42:19.862Z,94237.00
2023-03-22T08:42:31.192Z,94243.00
2023-03-22T08:42:42.779Z,94241.00
2023-03-22T08:42:54.120Z,94239.00
2023-03-22T08:43:05.698Z,94241.00
2023-03-22T08:43:17.075Z,94241.00
2023-03-22T08:43:28.658Z,94241.00
2023-03-22T08:43:40.027Z,94241.00
2023-03-22T08:43:51.587Z,94241.00
2023-03-22T08:44:02.952Z,94241.00
2023-03-22T08:44:14.540Z,94241.00
2023-03-22T08:44:25.918Z,94243.00
2023-03-22T08:44:37.455Z,94245.00
2023-03-22T08:44:48.834Z,94243.00
2023-03-22T08:45:00.412Z,94241.00
2023-03-22T08:45:11.734Z,94245.00
2023-03-22T08:45:23.333Z,94243.00
2023-03-22T08:45:34.671Z,94243.00
2023-03-22T08:45:46.315Z,94245.00
2023-03-22T08:45:57.731Z,94243.00
2023-03-22T08:46:09.374Z,94243.00
2023-03-22T08:46:20.812Z,94245.00
2023-03-22T08:46:32.502Z,94243.00
2023-03-22T08:46:44.016Z,94243.00
2023-03-22T08:46:55.588Z,94243.00
2023-03-22T08:47:06.917Z,94243.00
2023-03-22T08:47:18.505Z,94245.00
2023-03-22T08:47:29.879Z,94245.00
2023-03-22T08:47:41.461Z,94247.00
2023-03-22T08:47:52.846Z,94243.00
2023-03-22T08:48:04.467Z,94243.00
2023-03-22T08:48:15.858Z,94243.00
2023-03-22T08:48:27.487Z,94245.00
2023-03-22T08:48:38.818Z,94247.00
2023-03-22T08:48:50.419Z,94243.00
2023-03-22T08:49:01.713Z,94243.00
2023-03-22T08:49:13.301Z,94243.00
2023-03-22T08:49:24.665Z,94241.00
2023-03-22T08:49:36.251Z,94241.00
2023-03-22T08:49:47.555Z,94239.00
2023-03-22T08:49:59.160Z,94243.00
2023-03-22T08:50:10.518Z,94243.00
2023-03-22T08:50:22.108Z,94241.00
2023-03-22T08:50:33.424Z,94243.00
2023-03-22T08:50:45.005Z,94241.00
2023-03-22T08:50:56.338Z,94241.00
2023-03-22T08:51:07.937Z,94237.00
2023-03-22T08:51:19.380Z,94243.00
2023-03-22T08:51:30.946Z,94243.00
2023-03-22T08:51:42.332Z,94243.00
2023-03-22T08:51:53.913Z,94241.00
2023-03-22T08:52:05.283Z,94245.00
2023-03-22T08:52:16.880Z,94241.00
2023-03-22T08:52:28.193Z,94245.00
2023-03-22T08:52:39.799Z,94243.00
2023-03-22T08:52:51.152Z,94243.00
2023-03-22T08:53:02.740Z,94243.00
2023-03-22T08:53:14.108Z,94241.00
2023-03-22T08:53:25.705Z,94241.00
2023-03-22T08:53:37.093Z,94245.00
2023-03-22T08:53:48.640Z,94243.00
2023-03-22T08:53:59.986Z,94243.00
2023-03-22T08:54:11.565Z,94243.00
2023-03-22T08:54:22.888Z,94241.00
2023-03-22T08:54:35.472Z,94243.00
2023-03-22T08:54:44.669Z,94245.00
2023-03-22T08:54:56.251Z,94243.00
2023-03-22T08:55:07.560Z,94243.00
2023-03-22T08:55:19.167Z,94243.00
2023-03-22T08:55:30.530Z,94241.00
2023-03-22T08:55:42.341Z,94245.00
2023-03-22T08:55:53.712Z,94245.00
2023-03-22T08:56:05.290Z,94243.00
2023-03-22T08:56:16.616Z,94243.00
2023-03-22T08:56:28.207Z,94243.00
2023-03-22T08:56:39.531Z,94243.00
2023-03-22T08:56:51.127Z,94245.00
2023-03-22T08:57:02.470Z,94241.00
2023-03-22T08:57:14.057Z,94241.00
2023-03-22T08:57:25.380Z,94245.00
2023-03-22T08:57:38.764Z,94243.00
2023-03-22T08:57:48.135Z,94243.00
2023-03-22T08:57:59.721Z,94241.00
2023-03-22T08:58:11.055Z,94241.00
2023-03-22T08:58:22.658Z,94243.00
2023-03-22T08:58:33.984Z,94239.00
2023-03-22T08:58:45.572Z,94241.00
2023-03-22T08:58:56.915Z,94245.00
2023-03-22T08:59:08.501Z,94243.00
2023-03-22T08:59:19.856Z,94241.00
2023-03-22T08:59:31.475Z,94241.00
2023-03-22T08:59:42.793Z,94241.00
2023-03-22T08:59:54.385Z,94239.00
2023-03-22T09:00:05.720Z,94237.00
2023-03-22T09:00:17.323Z,94241.00
2023-03-22T09:00:36.531Z,94241.00
2023-03-22T09:00:48.500Z,94243.00
2023-03-22T09:00:52.709Z,94243.00
2023-03-22T09:01:04.485Z,94239.00
2023-03-22T09:01:16.325Z,94239.00
2023-03-22T09:01:27.856Z,94239.00
2023-03-22T09:01:39.581Z,94237.00
2023-03-22T09:01:51.142Z,94237.00
2023-03-22T09:02:02.960Z,94239.00
2023-03-22T09:02:14.407Z,94239.00
2023-03-22T09:02:26.010Z,94235.00
2023-03-22T09:02:37.344Z,94235.00
2023-03-22T09:02:48.927Z,94239.00
2023-03-22T09:03:00.321Z,94237.00
2023-03-22T09:03:11.898Z,94239.00
2023-03-22T09:03:23.247Z,94239.00
2023-03-22T09:03:34.830Z,94237.00
2023-03-22T09:03:46.151Z,94241.00
2023-03-22T09:03:57.899Z,94239.00
2023-03-22T09:04:10.754Z,94239.00
2023-03-22T09:04:20.150Z,94237.00
2023-03-22T09:04:31.748Z,94237.00
2023-03-22T09:04:43.130Z,94237.00
2023-03-22T09:04:54.739Z,94235.00
2023-03-22T09:05:06.059Z,94237.00
2023-03-22T09:05:17.662Z,94239.00
2023-03-22T09:05:29.001Z,94241.00
2023-03-22T09:05:41.039Z,94241.00
2023-03-22T09:05:52.887Z,94241.00
2023-03-22T09:06:04.227Z,94239.00
2023-03-22T09:06:15.817Z,94239.00
2023-03-22T09:06:27.144Z,94241.00
2023-03-22T09:06:38.742Z,94241.00
2023-03-22T09:06:52.973Z,94243.00
2023-03-22T09:07:02.185Z,94241.00
2023-03-22T09:07:13.802Z,94241.00
2023-03-22T09:07:25.119Z,94241.00
2023-03-22T09:07:36.695Z,94241.00
2023-03-22T09:07:48.037Z,94241.00
2023-03-22T09:08:06.105Z,94241.00
2023-03-22T09:08:18.392Z,94239.00
2023-03-22T09:08:23.594Z,94239.00
2023-03-22T09:08:34.941Z,94241.00
2023-03-22T09:08:46.523Z,94239.00
2023-03-22T09:08:57.987Z,94237.00
2023-03-22T09:09:09.564Z,94239.00
2023-03-22T09:09:20.916Z,94239.00
2023-03-22T09:09:32.503Z,94243.00
2023-03-22T09:09:43.850Z,94239.00
2023-03-22T09:09:55.448Z,94239.00
2023-03-22T09:10:06.789Z,94237.00
2023-03-22T09:10:18.374Z,94239.00
2023-03-22T09:10:29.732Z,94239.00
2023-03-22T09:10:41.296Z,94237.00
2023-03-22T09:10:52.676Z,94237.00
2023-03-22T09:11:04.249Z,94237.00
2023-03-22T09:11:17.708Z,94239.00
2023-03-22T09:11:27.149Z,94237.00
2023-03-22T09:11:38.748Z,94239.00
2023-03-22T09:11:50.073Z,94239.00
2023-03-22T09:12:01.661Z,94237.00
2023-03-22T09:12:13.046Z,94239.00
2023-03-22T09:12:24.603Z,94239.00
2023-03-22T09:12:35.925Z,94239.00
2023-03-22T09:12:47.535Z,94237.00
2023-03-22T09:12:58.899Z,94239.00
2023-03-22T09:13:10.468Z,94237.00
2023-03-22T09:13:21.799Z,94237.00
2023-03-22T09:13:33.419Z,94241.00
2023-03-22T09:13:44.772Z,94237.00
2023-03-22T09:13:56.362Z,94239.00
2023-03-22T09:14:07.697Z,94237.00
2023-03-22T09:14:19.289Z,94237.00
2023-03-22T09:14:30.644Z,94239.00
2023-03-22T09:14:42.256Z,94241.00
2023-03-22T09:14:55.772Z,94239.00
2023-03-22T09:15:03.844Z,94239.00
2023-03-22T09:15:15.186Z,94239.00
2023-03-22T09:15:26.769Z,94237.00
2023-03-22T09:15:38.384Z,94237.00
2023-03-22T09:15:50.102Z,94239.00
2023-03-22T09:16:01.474Z,94241.00
2023-03-22T09:16:13.170Z,94239.00
2023-03-22T09:16:24.665Z,94239.00
2023-03-22T09:16:36.345Z,94239.00
2023-03-22T09:16:47.670Z,94239.00
2023-03-22T09:16:59.359Z,94239.00
2023-03-22T09:17:10.690Z,94239.00
2023-03-22T09:17:22.571Z,94239.00
2023-03-22T09:17:33.943Z,94243.00
2023-03-22T09:17:45.562Z,94239.00
2023-03-22T09:17:56.885Z,94239.00
2023-03-22T09:18:08.460Z,94239.00
2023-03-22T09:18:19.801Z,94241.00
2023-03-22T09:18:31.385Z,94239.00
2023-03-22T09:18:42.746Z,94239.00
2023-03-22T09:18:54.345Z,94237.00
2023-03-22T09:19:05.690Z,94239.00
2023-03-22T09:19:17.273Z,94239.00
2023-03-22T09:19:28.625Z,94241.00
2023-03-22T09:19:40.208Z,94239.00
2023-03-22T09:20:02.715Z,94239.00
2023-03-22T09:20:12.467Z,94237.00
2023-03-22T09:20:15.543Z,94239.00
2023-03-22T09:20:26.889Z,94237.00
2023-03-22T09:20:38.910Z,94241.00
2023-03-22T09:20:50.646Z,94239.00
2023-03-22T09:21:01.968Z,94237.00
2023-03-22T09:21:13.580Z,94237.00
2023-03-22T09:21:24.937Z,94237.00
2023-03-22T09:21:36.558Z,94237.00
2023-03-22T09:21:47.908Z,94237.00
2023-03-22T09:21:59.484Z,94235.00
2023-03-22T09:22:10.838Z,94237.00
2023-03-22T09:22:22.413Z,94237.00
2023-03-22T09:22:33.746Z,94237.00
2023-03-22T09:22:45.356Z,94237.00
2023-03-22T09:22:56.670Z,94243.00
2023-03-22T09:23:08.278Z,94241.00
2023-03-22T09:23:19.637Z,94241.00
2023-03-22T09:23:31.232Z,94241.00
2023-03-22T09:23:42.581Z,94239.00
2023-03-22T09:23:54.162Z,94241.00
2023-03-22T09:24:05.486Z,94241.00
2023-03-22T09:24:17.074Z,94243.00
2023-03-22T09:24:28.397Z,94241.00
2023-03-22T09:24:40.016Z,94241.00
2023-03-22T09:24:51.354Z,94243.00
2023-03-22T09:25:02.951Z,94243.00
2023-03-22T09:25:14.433Z,94239.00
2023-03-22T09:25:26.016Z,94241.00
2023-03-22T09:25:37.357Z,94241.00
2023-03-22T09:25:48.945Z,94241.00
2023-03-22T09:26:00.274Z,94241.00
2023-03-22T09:26:11.884Z,94241.00
2023-03-22T09:26:23.200Z,94239.00
2023-03-22T09:26:34.800Z,94243.00
2023-03-22T09:26:46.142Z,94241.00
2023-03-22T09:26:57.709Z,94241.00
2023-03-22T09:27:09.031Z,94239.00
2023-03-22T09:27:20.625Z,94239.00
2023-03-22T09:27:31.945Z,94239.00
2023-03-22T09:27:43.536Z,94239.00
2023-03-22T09:27:54.884Z,94237.00
2023-03-22T09:28:06.496Z,94241.00
2023-03-22T09:28:17.919Z,94237.00
2023-03-22T09:28:29.547Z,94239.00
2023-03-22T09:28:40.906Z,94239.00
2023-03-22T09:28:52.484Z,94239.00
2023-03-22T09:29:03.805Z,94239.00
2023-03-22T09:29:15.407Z,94239.00
2023-03-22T09:29:26.720Z,94239.00
2023-03-22T09:29:38.305Z,94237.00
2023-03-22T09:29:49.671Z,94237.00
2023-03-22T09:30:01.310Z,94237.00
2023-03-22T09:30:12.596Z,94237.00
2023-03-22T09:30:24.245Z,94237.00
2023-03-22T09:30:35.592Z,94237.00
2023-03-22T09:30:47.422Z,94239.00
2023-03-22T09:30:58.807Z,94235.00
2023-03-22T09:31:10.439Z,94237.00
2023-03-22T09:31:21.749Z,94239.00
2023-03-22T09:31:33.323Z,94235.00
2023-03-22T09:31:44.668Z,94237.00
2023-03-22T09:31:56.256Z,94237.00
2023-03-22T09:32:07.589Z,94237.00
2023-03-22T09:32:19.190Z,94235.00
2023-03-22T09:32:30.518Z,94235.00
2023-03-22T09:32:42.099Z,94235.00
2023-03-22T09:32:53.415Z,94235.00
2023-03-22T09:33:05.001Z,94237.00
2023-03-22T09:33:16.333Z,94237.00
2023-03-22T09:33:27.930Z,94237.00
2023-03-22T09:33:39.271Z,94237.00
2023-03-22T09:33:50.859Z,94237.00
2023-03-22T09:34:02.184Z,94237.00
2023-03-22T09:34:13.771Z,94237.00
2023-03-22T09:34:25.094Z,94235.00
2023-03-22T09:34:36.661Z,94239.00
2023-03-22T09:34:47.975Z,94237.00
2023-03-22T09:34:59.621Z,94237.00
2023-03-22T09:35:10.982Z,94237.00
2023-03-22T09:35:22.568Z,94237.00
2023-03-22T09:35:33.881Z,94239.00
2023-03-22T09:35:45.489Z,94237.00
2023-03-22T09:35:56.852Z,94237.00
2023-03-22T09:36:08.445Z,94237.00
2023-03-22T09:36:19.778Z,94237.00
2023-03-22T09:36:31.362Z,94237.00
2023-03-22T09:36:42.700Z,94241.00
2023-03-22T09:36:56.214Z,94241.00
2023-03-22T09:37:04.423Z,94239.00
2023-03-22T09:37:15.766Z,94237.00
2023-03-22T09:37:27.346Z,94239.00
2023-03-22T09:37:38.684Z,94237.00
2023-03-22T09:37:50.295Z,94241.00
2023-03-22T09:38:01.632Z,94239.00
2023-03-22T09:38:13.208Z,94239.00
2023-03-22T09:38:24.518Z,94239.00
2023-03-22T09:38:36.136Z,94241.00
2023-03-22T09:38:47.468Z,94241.00
2023-03-22T09:38:59.055Z,94241.00
2023-03-22T09:39:10.403Z,94241.00
2023-03-22T09:39:22.021Z,94239.00
2023-03-22T09:39:33.369Z,94239.00
2023-03-22T09:39:44.966Z,94239.00
2023-03-22T09:39:56.289Z,94241.00
2023-03-22T09:40:07.953Z,94239.00
2023-03-22T09:40:19.267Z,94239.00
2023-03-22T09:40:30.892Z,94239.00
2023-03-22T09:40:42.225Z,94237.00
2023-03-22T09:40:53.840Z,94241.00
2023-03-22T09:41:05.173Z,94241.00
2023-03-22T09:41:16.771Z,94241.00
2023-03-22T09:41:28.113Z,94241.00
2023-03-22T09:41:39.704Z,94241.00
2023-03-22T09:41:51.029Z,94241.00
2023-03-22T09:42:02.629Z,94239.00
2023-03-22T09:42:13.951Z,94239.00
2023-03-22T09:42:25.529Z,94239.00
2023-03-22T09:42:36.858Z,94241.00
2023-03-22T09:42:48.439Z,94237.00
2023-03-22T09:42:59.790Z,94239.00
2023-03-22T09:43:11.366Z,94241.00
2023-03-22T09:43:22.703Z,94241.00
2023-03-22T09:43:34.297Z,94241.00
2023-03-22T09:43:45.643Z,94239.00
2023-03-22T09:43:57.241Z,94239.00
2023-03-22T09:44:08.541Z,94241.00
2023-03-22T09:44:20.148Z,94239.00
2023-03-22T09:44:31.472Z,94239.00
2023-03-22T09:44:43.097Z,94239.00
2023-03-22T09:44:54.392Z,94239.00
2023-03-22T09:45:05.966Z,94239.00
2023-03-22T09:45:17.306Z,94239.00
2023-03-22T09:45:28.932Z,94243.00
2023-03-22T09:45:40.558Z,94237.00
2023-03-22T09:45:52.377Z,94243.00
2023-03-22T09:46:03.785Z,94243.00
2023-03-22T09:46:15.435Z,94243.00
2023-03-22T09:46:26.862Z,94241.00
2023-03-22T09:46:38.533Z,94243.00
2023-03-22T09:46:49.864Z,94241.00
2023-03-22T09:47:01.483Z,94243.00
2023-03-22T09:47:12.812Z,94243.00
2023-03-22T09:47:26.975Z,94241.00
2023-03-22T09:47:44.392Z,94245.00
2023-03-22T09:47:47.762Z,94241.00
2023-03-22T09:47:59.095Z,94243.00
2023-03-22T09:48:10.770Z,94243.00
2023-03-22T09:48:22.142Z,94243.00
2023-03-22T09:48:33.862Z,94241.00
2023-03-22T09:48:46.624Z,94241.00
2023-03-22T09:48:56.854Z,94245.00
2023-03-22T09:49:08.435Z,94243.00
2023-03-22T09:49:19.770Z,94245.00
2023-03-22T09:49:38.499Z,94243.00
2023-03-22T09:49:52.949Z,94243.00
2023-03-22T09:49:55.338Z,94243.00
2023-03-22T09:50:06.675Z,94247.00
2023-03-22T09:50:18.236Z,94245.00
2023-03-22T09:50:29.595Z,94245.00
2023-03-22T09:50:41.180Z,94245.00
2023-03-22T09:50:52.546Z,94243.00
2023-03-22T09:51:04.132Z,94243.00
2023-03-22T09:51:15.474Z,94241.00
2023-03-22T09:51:27.079Z,94241.00
2023-03-22T09:51:38.421Z,94243.00
2023-03-22T09:51:50.137Z,94243.00
2023-03-22T09:52:01.535Z,94243.00
2023-03-22T09:52:13.111Z,94241.00
2023-03-22T09:52:24.527Z,94241.00
2023-03-22T09:52:36.099Z,94243.00
2023-03-22T09:52:47.431Z,94241.00
2023-03-22T09:52:59.018Z,94243.00
2023-03-22T09:53:10.349Z,94241.00
2023-03-22T09:53:21.943Z,94243.00
2023-03-22T09:53:33.297Z,94243.00
2023-03-22T09:53:44.901Z,94241.00
2023-03-22T09:53:56.233Z,94241.00
2023-03-22T09:54:07.811Z,94239.00
2023-03-22T09:54:19.140Z,94241.00
2023-03-22T09:54:30.775Z,94241.00
2023-03-22T09:54:42.106Z,94241.00
2023-03-22T09:54:53.717Z,94239.00
2023-03-22T09:55:05.059Z,94239.00
2023-03-22T09:55:16.659Z,94241.00
2023-03-22T09:55:28.011Z,94237.00
2023-03-22T09:55:39.857Z,94239.00
2023-03-22T09:55:51.341Z,94237.00
2023-03-22T09:56:02.932Z,94239.00
2023-03-22T09:56:14.243Z,94239.00
2023-03-22T09:56:25.847Z,94239.00
2023-03-22T09:56:37.162Z,94237.00
2023-03-22T09:56:48.745Z,94235.00
2023-03-22T09:57:00.103Z,94235.00
2023-03-22T09:57:11.658Z,94235.00
2023-03-22T09:57:22.985Z,94239.00
2023-03-22T09:57:34.572Z,94239.00
2023-03-22T09:57:45.901Z,94237.00
2023-03-22T09:57:57.478Z,94237.00
2023-03-22T09:58:08.810Z,94237.00
2023-03-22T09:58:20.442Z,94237.00
2023-03-22T09:58:31.862Z,94237.00
2023-03-22T09:58:43.461Z,94235.00
2023-03-22T09:58:54.808Z,94235.00
2023-03-22T09:59:06.432Z,94235.00
2023-03-22T09:59:17.766Z,94235.00
2023-03-22T09:59:29.386Z,94237.00
2023-03-22T09:59:40.709Z,94233.00
2023-03-22T09:59:52.307Z,94233.00
2023-03-22T10:00:03.641Z,94237.00
2023-03-22T10:00:15.285Z,94237.00
2023-03-22T10:00:26.777Z,94237.00
2023-03-22T10:00:38.675Z,94235.00
2023-03-22T10:00:50.552Z,94237.00
2023-03-22T10:01:02.140Z,94233.00
2023-03-22T10:01:13.995Z,94233.00
2023-03-22T10:01:25.601Z,94235.00
2023-03-22T10:01:37.724Z,94233.00
2023-03-22T10:01:49.628Z,94237.00
2023-03-22T10:02:01.228Z,94235.00
2023-03-22T10:02:13.132Z,94235.00
2023-03-22T10:02:24.678Z,94233.00
2023-03-22T10:02:36.314Z,94235.00
2023-03-22T10:02:47.680Z,94235.00
2023-03-22T10:02:59.233Z,94233.00
2023-03-22T10:03:10.567Z,94233.00
2023-03-22T10:03:22.150Z,94237.00
2023-03-22T10:03:33.549Z,94233.00
2023-03-22T10:03:45.163Z,94233.00
2023-03-22T10:03:56.580Z,94233.00
2023-03-22T10:04:08.152Z,94235.00
2023-03-22T10:04:19.582Z,94233.00
2023-03-22T10:04:31.365Z,94231.00
2023-03-22T10:04:42.797Z,94231.00
2023-03-22T10:04:54.377Z,94231.00
2023-03-22T10:05:05.721Z,94229.00
2023-03-22T10:05:17.331Z,94235.00
2023-03-22T10:05:28.652Z,94235.00
2023-03-22T10:05:40.452Z,94235.00
2023-03-22T10:05:51.928Z,94233.00
2023-03-22T10:06:03.512Z,94235.00
2023-03-22T10:06:14.862Z,94233.00
2023-03-22T10:06:28.227Z,94233.00
2023-03-22T10:06:38.510Z,94233.00
2023-03-22T10:06:50.124Z,94233.00
2023-03-22T10:07:01.452Z,94233.00
2023-03-22T10:07:13.044Z,94233.00
2023-03-22T10:07:24.375Z,94233.00
2023-03-22T10:07:35.961Z,94233.00
2023-03-22T10:07:47.305Z,94231.00
2023-03-22T10:07:58.887Z,94229.00
2023-03-22T10:08:10.208Z,94231.00
2023-03-22T10:08:21.802Z,94231.00
2023-03-22T10:08:33.139Z,94231.00
2023-03-22T10:08:44.734Z,94231.00
2023-03-22T10:08:56.067Z,94229.00
2023-03-22T10:09:07.660Z,94229.00
2023-03-22T10:09:18.977Z,94229.00
2023-03-22T10:09:30.573Z,94229.00
2023-03-22T10:09:41.952Z,94227.00
2023-03-22T10:09:53.539Z,94227.00
2023-03-22T10:10:04.869Z,94229.00
2023-03-22T10:10:16.448Z,94227.00
2023-03-22T10:10:27.782Z,94225.00
2023-03-22T10:10:39.418Z,94227.00
2023-03-22T10:10:50.760Z,94229.00
2023-03-22T10:11:02.366Z,94225.00
2023-03-22T10:11:13.685Z,94227.00
2023-03-22T10:11:25.302Z,94229.00
2023-03-22T10:11:36.623Z,94229.00
2023-03-22T10:11:48.205Z,94229.00
2023-03-22T10:11:59.544Z,94229.00
2023-03-22T10:12:11.141Z,94227.00
2023-03-22T10:12:22.460Z,94225.00
2023-03-22T10:12:34.078Z,94227.00
2023-03-22T10:12:45.418Z,94225.00
2023-03-22T10:12:57.062Z,94231.00
2023-03-22T10:13:08.389Z,94227.00
2023-03-22T10:13:20.028Z,94227.00
2023-03-22T10:13:31.319Z,94225.00
2023-03-22T10:13:42.918Z,94225.00
2023-03-22T10:13:54.248Z,94227.00
2023-03-22T10:14:05.835Z,94227.00
2023-03-22T10:14:17.170Z,94227.00
2023-03-22T10:14:28.759Z,94227.00
2023-03-22T10:14:40.089Z,94225.00
2023-03-22T10:14:51.681Z,94227.00
2023-03-22T10:15:03.007Z,94225.00
2023-03-22T10:15:14.590Z,94227.00
2023-03-22T10:15:25.945Z,94225.00
2023-03-22T10:15:37.567Z,94227.00
2023-03-22T10:15:48.968Z,94227.00
2023-03-22T10:16:00.568Z,94225.00
2023-03-22T10:16:12.022Z,94225.00
2023-03-22T10:16:23.693Z,94225.00
2023-03-22T10:16:35.096Z,94225.00
2023-03-22T10:16:46.687Z,94229.00
2023-03-22T10:16:58.023Z,94227.00
2023-03-22T10:17:09.639Z,94227.00
2023-03-22T10:17:20.976Z,94227.00
2023-03-22T10:17:32.572Z,94225.00
2023-03-22T10:17:43.898Z,94225.00
2023-03-22T10:17:55.518Z,94225.00
2023-03-22T10:18:06.805Z,94225.00
2023-03-22T10:18:18.426Z,94225.00
2023-03-22T10:18:29.763Z,94227.00
2023-03-22T10:18:41.447Z,94223.00
2023-03-22T10:18:52.791Z,94225.00
2023-03-22T10:19:04.400Z,94225.00
2023-03-22T10:19:15.738Z,94225.00
2023-03-22T10:19:27.328Z,94223.00
2023-03-22T10:19:38.662Z,94223.00
2023-03-22T10:19:50.247Z,94225.00
2023-03-22T10:20:01.569Z,94223.00
2023-03-22T10:20:13.154Z,94223.00
2023-03-22T10:20:24.501Z,94223.00
2023-03-22T10:20:36.061Z,94223.00
2023-03-22T10:20:47.387Z,94223.00
2023-03-22T10:20:59.015Z,94225.00
2023-03-22T10:21:10.360Z,94225.00
2023-03-22T10:21:21.957Z,94223.00
2023-03-22T10:21:33.289Z,94221.00
2023-03-22T10:21:44.880Z,94223.00
2023-03-22T10:21:56.252Z,94225.00
2023-03-22T10:22:07.854Z,94223.00
2023-03-22T10:22:19.183Z,94229.00
2023-03-22T10:22:30.761Z,94221.00
2023-03-22T10:22:42.095Z,94227.00
2023-03-22T10:22:53.713Z,94225.00
2023-03-22T10:23:05.031Z,94225.00
2023-03-22T10:23:16.645Z,94227.00
2023-03-22T10:23:27.971Z,94227.00
2023-03-22T10:23:39.561Z,94225.00
2023-03-22T10:23:50.903Z,94225.00
2023-03-22T10:24:02.533Z,94225.00
2023-03-22T10:24:13.827Z,94223.00
2023-03-22T10:24:25.396Z,94225.00
2023-03-22T10:24:36.727Z,94225.00
2023-03-22T10:24:48.317Z,94225.00
2023-03-22T10:24:59.627Z,94225.00
2023-03-22T10:25:11.235Z,94223.00
2023-03-22T10:25:22.582Z,94223.00
2023-03-22T10:25:34.178Z,94223.00
2023-03-22T10:25:45.502Z,94221.00
2023-03-22T10:25:57.074Z,94223.00
2023-03-22T10:26:08.450Z,94223.00
2023-03-22T10:26:19.990Z,94225.00
2023-03-22T10:26:31.325Z,94223.00
2023-03-22T10:26:42.960Z,94223.00
2023-03-22T10:26:54.279Z,94223.00
2023-03-22T10:27:05.864Z,94223.00
2023-03-22T10:27:17.196Z,94223.00
2023-03-22T10:27:28.775Z,94221.00
2023-03-22T10:27:40.107Z,94221.00
2023-03-22T10:27:51.706Z,94223.00
2023-03-22T10:28:03.060Z,94221.00
2023-03-22T10:28:14.653Z,94221.00
2023-03-22T10:28:25.965Z,94219.00
2023-03-22T10:28:37.560Z,94219.00
2023-03-22T10:28:48.901Z,94221.00
2023-03-22T10:29:02.780Z,94221.00
2023-03-22T10:29:10.825Z,94221.00
2023-03-22T10:29:22.176Z,94219.00
2023-03-22T10:29:33.820Z,94219.00
2023-03-22T10:29:45.155Z,94219.00
2023-03-22T10:29:56.746Z,94223.00
2023-03-22T10:30:08.108Z,94221.00
2023-03-22T10:30:19.878Z,94221.00
2023-03-22T10:30:31.232Z,94221.00
2023-03-22T10:30:43.323Z,94219.00
2023-03-22T10:30:54.994Z,94221.00
2023-03-22T10:31:06.515Z,94221.00
2023-03-22T10:31:18.204Z,94221.00
2023-03-22T10:31:29.568Z,94219.00
2023-03-22T10:31:41.187Z,94219.00
2023-03-22T10:31:52.628Z,94217.00
2023-03-22T10:32:04.256Z,94219.00
2023-03-22T10:32:15.615Z,94217.00
2023-03-22T10:32:27.220Z,94219.00
2023-03-22T10:32:47.998Z,94219.00
2023-03-22T10:32:57.533Z,94219.00
2023-03-22T10:33:02.501Z,94219.00
2023-03-22T10:33:13.833Z,94217.00
2023-03-22T10:33:25.417Z,94221.00
2023-03-22T10:33:36.744Z,94219.00
2023-03-22T10:33:48.383Z,94219.00
2023-03-22T10:33:59.716Z,94219.00
2023-03-22T10:34:11.309Z,94217.00
2023-03-22T10:34:22.676Z,94221.00
2023-03-22T10:34:34.229Z,94219.00
2023-03-22T10:34:45.561Z,94219.00
2023-03-22T10:34:57.150Z,94221.00
2023-03-22T10:35:08.544Z,94219.00
2023-03-22T10:35:20.216Z,94221.00
2023-03-22T10:35:31.634Z,94219.00
2023-03-22T10:35:43.738Z,94221.00
2023-03-22T10:35:55.479Z,94219.00
2023-03-22T10:36:06.795Z,94221.00
2023-03-22T10:36:18.369Z,94223.00
2023-03-22T10:36:29.704Z,94219.00
2023-03-22T10:36:41.301Z,94219.00
2023-03-22T10:36:52.625Z,94219.00
2023-03-22T10:37:04.252Z,94219.00
2023-03-22T10:37:15.606Z,94221.00
2023-03-22T10:37:27.217Z,94219.00
2023-03-22T10:37:38.541Z,94219.00
2023-03-22T10:37:50.138Z,94219.00
2023-03-22T10:38:01.495Z,94217.00
2023-03-22T10:38:13.081Z,94217.00
2023-03-22T10:38:24.435Z,94221.00
2023-03-22T10:38:36.049Z,94219.00
2023-03-22T10:38:47.374Z,94219.00
2023-03-22T10:38:58.937Z,94219.00
2023-03-22T10:39:10.281Z,94219.00
2023-03-22T10:39:21.882Z,94219.00
2023-03-22T10:39:33.235Z,94219.00
2023-03-22T10:39:44.858Z,94217.00
2023-03-22T10:39:56.201Z,94217.00
2023-03-22T10:40:07.822Z,94221.00
2023-03-22T10:40:19.219Z,94217.00
2023-03-22T10:40:30.794Z,94217.00
2023-03-22T10:40:42.191Z,94215.00
2023-03-22T10:40:53.774Z,94215.00
2023-03-22T10:41:05.130Z,94217.00
2023-03-22T10:41:16.722Z,94219.00
2023-03-22T10:41:28.044Z,94219.00
2023-03-22T10:41:39.653Z,94219.00
2023-03-22T10:41:51.014Z,94219.00
2023-03-22T10:42:02.621Z,94215.00
2023-03-22T10:42:13.927Z,94217.00
2023-03-22T10:42:25.507Z,94217.00
2023-03-22T10:42:36.863Z,94217.00
2023-03-22T10:42:48.553Z,94215.00
2023-03-22T10:42:59.882Z,94215.00
2023-03-22T10:43:11.467Z,94215.00
2023-03-22T10:43:22.781Z,94215.00
2023-03-22T10:43:34.376Z,94213.00
2023-03-22T10:43:45.716Z,94215.00
2023-03-22T10:43:57.317Z,94215.00
2023-03-22T10:44:08.916Z,94215.00
2023-03-22T10:44:20.552Z,94215.00
2023-03-22T10:44:31.869Z,94219.00
2023-03-22T10:44:43.478Z,94217.00
2023-03-22T10:44:54.818Z,94217.00
2023-03-22T10:45:06.401Z,94215.00
2023-03-22T10:45:17.751Z,94217.00
2023-03-22T10:45:29.339Z,94217.00
2023-03-22T10:45:40.951Z,94217.00
2023-03-22T10:45:52.622Z,94217.00
2023-03-22T10:46:03.956Z,94215.00
2023-03-22T10:46:15.623Z,94215.00
2023-03-22T10:46:27.022Z,94213.00
2023-03-22T10:46:38.753Z,94217.00
2023-03-22T10:46:50.144Z,94217.00
2023-03-22T10:47:01.743Z,94217.00
2023-03-22T10:47:13.079Z,94215.00
2023-03-22T10:47:24.725Z,94217.00
2023-03-22T10:47:36.070Z,94213.00
2023-03-22T10:47:47.807Z,94215.00
2023-03-22T10:47:59.172Z,94215.00
2023-03-22T10:48:10.750Z,94213.00
2023-03-22T10:48:22.244Z,94215.00
2023-03-22T10:48:33.877Z,94215.00
2023-03-22T10:48:45.260Z,94213.00
2023-03-22T10:48:56.876Z,94211.00
2023-03-22T10:49:08.263Z,94213.00
2023-03-22T10:49:19.853Z,94215.00